createdAt,value
2018-07-17T00:01:15.907Z,2.20
2018-07-17T00:03:44.129Z,2.30
2018-07-17T00:06:12.472Z,1.90
2018-07-17T00:08:40.850Z,2.17
2018-07-17T00:11:09.231Z,2.60
2018-07-17T00:13:37.595Z,2.23
2018-07-17T00:16:06.396Z,2.20
2018-07-17T00:18:34.843Z,2.47
2018-07-17T00:21:04.192Z,2.23
2018-07-17T00:23:32.582Z,2.20
2018-07-17T00:26:01.047Z,2.40
2018-07-17T00:28:29.487Z,2.77
2018-07-17T00:30:57.860Z,2.90
2018-07-17T00:33:26.327Z,2.83
2018-07-17T00:35:54.667Z,2.60
2018-07-17T00:38:23.039Z,3.20
2018-07-17T00:40:51.492Z,3.20
2018-07-17T00:43:19.825Z,3.53
2018-07-17T00:45:48.290Z,3.63
2018-07-17T00:48:16.684Z,3.60
2018-07-17T00:50:45.076Z,3.30
2018-07-17T00:53:13.614Z,4.00
2018-07-17T00:55:42.126Z,3.73
2018-07-17T00:58:10.434Z,3.70
2018-07-17T01:00:45.952Z,3.77
2018-07-17T01:03:19.936Z,3.53
2018-07-17T01:05:53.767Z,3.70
2018-07-17T01:08:27.402Z,3.87
2018-07-17T01:11:01.195Z,3.40
2018-07-17T01:14:38.736Z,4.57
2018-07-17T01:17:07.099Z,3.73
2018-07-17T01:19:35.452Z,3.53
2018-07-17T01:22:03.899Z,3.90
2018-07-17T01:24:32.299Z,3.60
2018-07-17T01:27:00.831Z,3.40
2018-07-17T01:29:29.219Z,4.03
2018-07-17T01:31:57.623Z,3.80
2018-07-17T01:34:25.976Z,3.97
2018-07-17T01:36:54.422Z,3.77
2018-07-17T01:39:22.791Z,3.90
2018-07-17T01:41:51.220Z,3.27
2018-07-17T01:44:19.383Z,3.70
2018-07-17T01:46:48.067Z,3.67
2018-07-17T01:49:16.445Z,3.57
2018-07-17T01:51:44.901Z,3.57
2018-07-17T01:54:13.204Z,2.90
2018-07-17T01:56:41.552Z,3.57
2018-07-17T01:59:09.888Z,3.47
2018-07-17T02:01:38.271Z,3.10
2018-07-17T02:04:06.752Z,3.03
2018-07-17T02:06:35.187Z,3.40
2018-07-17T02:09:03.999Z,3.43
2018-07-17T02:11:32.488Z,2.90
2018-07-17T02:14:00.885Z,3.43
2018-07-17T02:16:30.274Z,3.50
2018-07-17T02:18:58.353Z,3.07
2018-07-17T02:21:26.485Z,2.97
2018-07-17T02:23:54.828Z,3.00
2018-07-17T02:26:23.239Z,3.20
2018-07-17T02:28:51.633Z,3.27
2018-07-17T02:31:20.073Z,2.87
2018-07-17T02:33:48.439Z,2.53
2018-07-17T02:36:17.035Z,2.83
2018-07-17T02:38:45.506Z,2.90
2018-07-17T02:41:13.920Z,2.80
2018-07-17T02:43:42.365Z,2.77
2018-07-17T02:46:10.411Z,2.87
2018-07-17T02:48:38.755Z,2.53
2018-07-17T02:51:07.292Z,2.80
2018-07-17T02:53:35.939Z,2.60
2018-07-17T02:56:04.460Z,2.87
2018-07-17T02:58:32.808Z,2.27
2018-07-17T03:01:01.134Z,2.70
2018-07-17T03:03:29.612Z,2.80
2018-07-17T03:05:57.994Z,2.67
2018-07-17T03:08:26.391Z,2.87
2018-07-17T03:10:54.799Z,2.53
2018-07-17T03:13:23.150Z,2.30
2018-07-17T03:15:51.522Z,2.50
2018-07-17T03:18:19.871Z,2.70
2018-07-17T03:20:48.252Z,2.50
2018-07-17T03:23:16.885Z,2.33
2018-07-17T03:25:45.212Z,2.83
2018-07-17T03:28:13.739Z,2.33
2018-07-17T03:30:42.080Z,2.70
2018-07-17T03:33:10.463Z,2.57
2018-07-17T03:35:38.837Z,2.33
2018-07-17T03:38:07.255Z,2.27
2018-07-17T03:40:35.635Z,2.33
2018-07-17T03:43:04.237Z,2.50
2018-07-17T03:45:32.656Z,2.33
2018-07-17T03:48:01.030Z,2.40
2018-07-17T03:50:29.448Z,2.57
2018-07-17T03:52:57.790Z,2.37
2018-07-17T03:55:26.235Z,2.43
2018-07-17T03:57:54.627Z,2.40
2018-07-17T04:00:22.968Z,2.60
2018-07-17T04:02:51.393Z,2.30
2018-07-17T04:05:19.767Z,2.67
2018-07-17T04:07:48.128Z,2.83
2018-07-17T04:10:16.499Z,3.00
2018-07-17T04:12:45.041Z,2.97
2018-07-17T04:15:13.412Z,3.20
2018-07-17T04:17:41.795Z,3.00
2018-07-17T04:20:10.362Z,3.10
2018-07-17T04:22:38.947Z,2.83
2018-07-17T04:25:07.291Z,2.73
2018-07-17T04:27:35.712Z,3.20
2018-07-17T04:30:04.031Z,3.40
2018-07-17T04:32:32.470Z,2.43
2018-07-17T04:35:00.946Z,2.90
2018-07-17T04:37:29.330Z,2.70
2018-07-17T04:39:57.705Z,3.20
2018-07-17T04:42:26.129Z,2.77
2018-07-17T04:44:54.464Z,2.63
2018-07-17T04:47:22.871Z,3.00
2018-07-17T04:49:51.267Z,2.90
2018-07-17T04:52:19.595Z,2.83
2018-07-17T04:54:47.960Z,2.77
2018-07-17T04:57:16.401Z,2.70
2018-07-17T04:59:44.736Z,2.67
2018-07-17T05:02:13.155Z,3.10
2018-07-17T05:04:41.643Z,2.90
2018-07-17T05:07:09.999Z,2.87
2018-07-17T05:09:38.351Z,3.00
2018-07-17T05:12:06.741Z,2.67
2018-07-17T05:14:35.144Z,3.20
2018-07-17T05:17:03.537Z,3.10
2018-07-17T05:19:32.093Z,2.50
2018-07-17T05:22:00.536Z,2.60
2018-07-17T05:24:28.894Z,2.40
2018-07-17T05:26:57.317Z,3.03
2018-07-17T05:29:25.654Z,2.57
2018-07-17T05:31:54.056Z,3.00
2018-07-17T05:34:22.431Z,2.77
2018-07-17T05:36:50.578Z,2.87
2018-07-17T05:39:18.927Z,2.60
2018-07-17T05:54:47.302Z,3.43
2018-07-17T05:57:15.672Z,3.50
2018-07-17T05:59:44.098Z,3.13
2018-07-17T06:02:13.070Z,3.03
2018-07-17T06:04:41.412Z,3.73
2018-07-17T06:07:09.783Z,3.27
2018-07-17T06:09:38.194Z,3.57
2018-07-17T06:12:06.703Z,3.40
2018-07-17T06:14:35.059Z,3.33
2018-07-17T06:17:03.452Z,3.70
2018-07-17T06:19:31.924Z,3.30
2018-07-17T06:22:00.317Z,3.30
2018-07-17T06:24:28.845Z,2.97
2018-07-17T06:26:57.175Z,3.70
2018-07-17T06:29:25.572Z,2.90
2018-07-17T06:31:53.909Z,3.40
2018-07-17T06:34:22.259Z,3.50
2018-07-17T06:36:50.629Z,3.63
2018-07-17T06:39:19.046Z,3.43
2018-07-17T06:41:47.399Z,3.53
2018-07-17T06:44:15.772Z,3.40
2018-07-17T06:46:44.291Z,3.90
2018-07-17T06:49:12.655Z,3.10
2018-07-17T06:51:40.983Z,3.30
2018-07-17T06:54:09.457Z,3.13
2018-07-17T06:56:37.847Z,3.63
2018-07-17T06:59:05.938Z,3.80
2018-07-17T07:01:34.887Z,4.37
2018-07-17T07:04:04.494Z,3.70
2018-07-17T07:06:33.268Z,4.47
2018-07-17T07:09:01.652Z,4.03
2018-07-17T07:11:30.054Z,3.40
2018-07-17T07:13:58.461Z,3.50
2018-07-17T07:16:26.802Z,3.53
2018-07-17T07:18:55.226Z,4.43
2018-07-17T07:21:23.574Z,3.63
2018-07-17T07:23:51.998Z,3.93
2018-07-17T07:26:20.440Z,3.27
2018-07-17T07:28:48.646Z,3.80
2018-07-17T07:31:17.066Z,3.37
2018-07-17T07:33:45.530Z,3.13
2018-07-17T07:36:14.011Z,3.20
2018-07-17T07:38:42.544Z,3.23
2018-07-17T07:41:10.994Z,3.20
2018-07-17T07:43:40.003Z,3.63
2018-07-17T07:46:08.368Z,3.27
2018-07-17T07:48:36.752Z,2.97
2018-07-17T07:51:05.083Z,3.53
2018-07-17T07:53:33.979Z,3.80
2018-07-17T07:56:02.481Z,3.60
2018-07-17T07:58:30.943Z,4.07
2018-07-17T08:46:53.767Z,2.87
2018-07-17T08:49:21.927Z,2.73
2018-07-17T08:51:50.178Z,2.40
2018-07-17T08:54:19.479Z,2.60
2018-07-17T08:56:47.502Z,2.70
2018-07-17T08:59:15.586Z,2.70
2018-07-17T09:01:43.658Z,2.43
2018-07-17T09:04:11.775Z,2.43
2018-07-17T09:06:39.907Z,2.87
2018-07-17T09:09:07.967Z,2.50
2018-07-17T09:11:36.122Z,2.53
2018-07-17T09:14:04.234Z,2.07
2018-07-17T09:16:33.421Z,2.67
2018-07-17T09:19:01.460Z,1.80
2018-07-17T09:21:29.584Z,2.50
2018-07-17T09:23:57.615Z,2.10
2018-07-17T09:26:25.699Z,2.00
2018-07-17T09:28:53.993Z,2.50
2018-07-17T09:31:22.045Z,2.10
2018-07-17T09:33:50.206Z,2.23
2018-07-17T09:36:18.269Z,2.33
2018-07-17T09:38:46.446Z,2.53
2018-07-17T09:41:14.767Z,2.27
2018-07-17T09:43:42.866Z,2.10
2018-07-17T09:46:11.057Z,1.97
2018-07-17T09:48:39.114Z,2.00
2018-07-17T09:51:07.356Z,2.50
2018-07-17T09:53:35.702Z,2.40
2018-07-17T09:56:03.833Z,2.40
2018-07-17T09:58:32.013Z,2.27
2018-07-17T10:01:05.666Z,2.10
2018-07-17T10:03:33.827Z,2.40
2018-07-17T10:06:02.014Z,2.10
2018-07-17T10:08:30.065Z,2.17
2018-07-17T10:10:58.134Z,2.40
2018-07-17T10:13:26.226Z,2.03
2018-07-17T10:15:54.281Z,2.40
2018-07-17T10:18:22.386Z,2.00
2018-07-17T10:20:50.462Z,2.20
2018-07-17T10:23:18.561Z,2.00
2018-07-17T10:25:46.648Z,2.30
2018-07-17T10:28:14.761Z,2.50
2018-07-17T10:30:42.916Z,1.80
2018-07-17T10:33:11.083Z,2.30
2018-07-17T10:35:39.210Z,1.90
2018-07-17T10:38:07.343Z,2.10
2018-07-17T10:40:35.426Z,2.10
2018-07-17T10:43:03.647Z,1.70
2018-07-17T10:45:31.682Z,2.00
2018-07-17T10:47:59.790Z,2.20
2018-07-17T10:50:27.970Z,2.40
2018-07-17T10:52:56.126Z,2.03
2018-07-17T10:55:24.371Z,2.10
2018-07-17T10:57:52.405Z,2.23
2018-07-17T11:00:20.491Z,1.90
2018-07-17T11:02:48.567Z,1.93
2018-07-17T11:05:16.652Z,2.27
2018-07-17T11:07:44.743Z,1.90
2018-07-17T11:10:13.007Z,1.80
2018-07-17T11:12:41.061Z,1.83
2018-07-17T11:15:09.172Z,1.93
2018-07-17T11:17:37.266Z,1.80
2018-07-17T11:20:05.346Z,1.93
2018-07-17T11:22:33.450Z,2.10
2018-07-17T11:25:01.586Z,2.03
2018-07-17T11:27:29.686Z,1.90
2018-07-17T11:29:57.753Z,1.67
2018-07-17T11:32:25.859Z,2.00
2018-07-17T11:34:53.973Z,1.70
2018-07-17T11:37:22.047Z,1.70
2018-07-17T11:39:50.122Z,1.90
2018-07-17T11:42:18.195Z,1.70
2018-07-17T11:44:46.302Z,1.80
2018-07-17T11:47:14.487Z,2.07
2018-07-17T11:49:42.583Z,2.07
2018-07-17T11:52:10.635Z,2.30
2018-07-17T11:54:38.726Z,1.80
2018-07-17T11:57:06.794Z,1.80
2018-07-17T11:59:35.830Z,2.00
2018-07-17T12:02:03.978Z,2.07
2018-07-17T12:04:32.046Z,1.70
2018-07-17T12:07:00.124Z,2.17
2018-07-17T12:09:28.359Z,1.90
2018-07-17T12:11:56.430Z,1.87
2018-07-17T12:14:24.505Z,1.67
2018-07-17T12:16:52.579Z,1.73
2018-07-17T12:19:20.627Z,1.77
2018-07-17T12:21:48.748Z,2.00
2018-07-17T12:24:16.826Z,1.97
2018-07-17T12:26:44.917Z,1.90
2018-07-17T12:29:12.974Z,1.93
2018-07-17T12:31:41.123Z,2.00
2018-07-17T12:34:10.301Z,2.37
2018-07-17T12:36:38.388Z,1.70
2018-07-17T12:39:07.532Z,1.90
2018-07-17T12:41:35.600Z,1.73
2018-07-17T12:44:03.978Z,1.70
2018-07-17T12:46:32.130Z,1.70
2018-07-17T12:49:00.307Z,1.73
2018-07-17T12:51:28.444Z,1.83
2018-07-17T12:53:56.590Z,2.10
2018-07-17T12:56:24.812Z,2.27
2018-07-17T12:58:52.873Z,1.67
2018-07-17T13:01:20.938Z,2.17
2018-07-17T13:03:49.109Z,1.50
2018-07-17T13:06:17.179Z,1.77
2018-07-17T13:08:45.313Z,1.60
2018-07-17T13:11:13.444Z,1.50
2018-07-17T13:13:41.538Z,1.70
2018-07-17T13:16:09.635Z,1.50
2018-07-17T13:18:37.697Z,1.60
2018-07-17T13:21:05.834Z,1.57
2018-07-17T13:23:34.005Z,1.63
2018-07-17T13:26:02.083Z,1.60
2018-07-17T13:28:30.243Z,1.57
2018-07-17T13:30:58.311Z,1.50
2018-07-17T13:33:26.389Z,1.90
2018-07-17T13:35:54.467Z,1.50
2018-07-17T13:38:22.557Z,1.63
2018-07-17T13:40:50.737Z,1.83
2018-07-17T13:43:19.127Z,1.80
2018-07-17T13:45:47.191Z,1.67
2018-07-17T13:48:15.300Z,1.60
2018-07-17T13:50:43.409Z,1.47
2018-07-17T13:53:11.523Z,1.50
2018-07-17T13:55:39.560Z,1.47
2018-07-17T13:58:07.611Z,1.70
2018-07-17T14:00:35.703Z,1.60
2018-07-17T14:03:03.828Z,1.50
2018-07-17T14:05:31.889Z,1.50
2018-07-17T14:07:59.984Z,1.70
2018-07-17T15:16:35.164Z,1.50
2018-07-17T15:19:03.358Z,1.60
2018-07-17T15:21:31.532Z,1.60
2018-07-17T15:23:59.654Z,1.37
2018-07-17T15:26:27.725Z,1.60
2018-07-17T15:28:55.827Z,1.43
2018-07-17T15:31:23.935Z,1.60
2018-07-17T15:33:52.011Z,1.77
2018-07-17T15:36:20.095Z,1.50
2018-07-17T15:38:48.216Z,1.50
2018-07-17T15:41:16.242Z,1.73
2018-07-17T15:43:44.402Z,1.63
2018-07-17T15:46:12.478Z,1.40
2018-07-17T15:48:40.574Z,1.60
2018-07-17T15:51:08.806Z,1.43
2018-07-17T15:53:36.898Z,1.63
2018-07-17T15:56:05.681Z,1.40
2018-07-17T15:58:33.820Z,1.57
2018-07-17T16:01:02.039Z,1.40
2018-07-17T16:03:30.142Z,1.50
2018-07-17T16:05:58.215Z,2.00
2018-07-17T16:08:26.350Z,1.87
2018-07-17T16:10:54.446Z,1.60
2018-07-17T16:13:22.622Z,1.90
2018-07-17T16:15:50.575Z,1.50
2018-07-17T16:18:18.634Z,1.50
2018-07-17T16:20:46.726Z,1.77
2018-07-17T16:23:14.822Z,1.63
2018-07-17T16:25:42.995Z,1.57
2018-07-17T16:28:11.031Z,1.53
2018-07-17T16:30:39.798Z,1.80
2018-07-17T16:33:08.349Z,1.60
2018-07-17T16:35:36.391Z,1.73
2018-07-17T16:38:04.493Z,1.70
2018-07-17T16:40:32.600Z,1.93
2018-07-17T16:43:01.755Z,1.77
2018-07-17T16:45:29.795Z,1.70
2018-07-17T16:47:58.351Z,1.80
2018-07-17T16:50:26.831Z,1.70
2018-07-17T16:52:54.943Z,1.80
2018-07-17T16:55:23.034Z,1.97
2018-07-17T16:57:51.110Z,1.90
2018-07-17T17:00:19.195Z,2.10
2018-07-17T17:02:47.350Z,1.53
2018-07-17T17:05:15.442Z,1.60
2018-07-17T17:07:43.594Z,1.83
2018-07-17T17:10:11.647Z,1.53
2018-07-17T17:12:39.860Z,1.93
2018-07-17T17:15:07.958Z,2.00
2018-07-17T17:17:36.107Z,1.60
2018-07-17T17:20:04.218Z,1.70
2018-07-17T17:22:32.267Z,1.50
2018-07-17T17:25:00.343Z,1.80
2018-07-17T17:27:28.390Z,1.60
2018-07-17T17:29:56.466Z,1.50
2018-07-17T17:32:24.541Z,1.63
2018-07-17T17:34:53.254Z,1.57
2018-07-17T17:37:21.367Z,1.63
2018-07-17T17:39:49.545Z,1.60
2018-07-17T17:42:18.141Z,1.47
2018-07-17T17:44:46.248Z,1.60
2018-07-17T17:47:14.319Z,1.50
2018-07-17T17:49:42.418Z,1.67
2018-07-17T17:52:10.594Z,1.57
2018-07-17T17:54:38.697Z,1.50
2018-07-17T17:57:06.847Z,1.80
2018-07-17T17:59:34.923Z,1.77
2018-07-17T18:02:03.056Z,1.40
2018-07-17T18:04:31.139Z,1.60
2018-07-17T18:06:59.221Z,1.70
2018-07-17T18:09:27.287Z,1.40
2018-07-17T18:11:55.384Z,1.57
2018-07-17T18:14:23.426Z,1.87
2018-07-17T18:16:51.653Z,1.70
2018-07-17T18:19:19.722Z,1.70
2018-07-17T18:21:47.790Z,1.50
2018-07-17T18:24:15.900Z,1.70
2018-07-17T18:26:44.033Z,1.57
2018-07-17T18:29:12.073Z,1.30
2018-07-17T18:31:40.126Z,1.60
2018-07-17T18:34:08.301Z,1.50
2018-07-17T18:36:36.393Z,1.47
2018-07-17T18:39:05.636Z,1.40
2018-07-17T18:41:34.025Z,1.40
2018-07-17T18:44:02.136Z,1.60
2018-07-17T18:46:30.214Z,1.57
2018-07-17T18:48:58.291Z,1.60
2018-07-17T18:51:26.352Z,1.50
2018-07-17T18:53:54.414Z,1.80
2018-07-17T18:56:22.476Z,1.50
2018-07-17T18:58:50.612Z,1.53
2018-07-17T19:01:18.961Z,2.20
2018-07-17T19:03:47.039Z,1.50
2018-07-17T19:06:15.167Z,1.80
2018-07-17T19:08:43.221Z,1.77
2018-07-17T19:11:11.477Z,1.90
2018-07-17T19:13:39.519Z,1.70
2018-07-17T19:16:07.602Z,2.03
2018-07-17T19:18:35.778Z,1.67
2018-07-17T19:21:03.928Z,2.20
2018-07-17T19:23:32.144Z,2.07
2018-07-17T19:26:00.289Z,1.70
2018-07-17T19:28:28.765Z,1.67
2018-07-17T19:30:56.822Z,1.63
2018-07-17T19:33:25.515Z,1.83
2018-07-17T19:35:53.691Z,1.63
2018-07-17T19:38:21.774Z,1.30
2018-07-17T19:40:49.933Z,1.53
2018-07-17T19:43:18.114Z,1.60
2018-07-17T19:45:46.188Z,1.60
2018-07-17T19:48:14.275Z,1.53
2018-07-17T19:50:42.475Z,1.30
2018-07-17T19:53:10.619Z,1.80
2018-07-17T19:55:38.702Z,1.50
2018-07-17T19:58:06.782Z,1.20
2018-07-17T20:00:34.892Z,1.20
2018-07-17T20:03:03.514Z,1.90
2018-07-17T20:05:31.614Z,1.73
2018-07-17T20:07:59.699Z,1.87
2018-07-17T20:10:28.654Z,1.80
2018-07-17T20:12:56.747Z,1.77
2018-07-17T20:15:24.811Z,1.43
2018-07-17T20:17:52.887Z,1.60
2018-07-17T20:20:20.987Z,1.37
2018-07-17T20:22:49.059Z,1.40
2018-07-17T20:25:17.286Z,1.57
2018-07-17T20:27:45.364Z,1.40
2018-07-17T20:30:13.734Z,1.30
2018-07-17T20:32:41.898Z,1.40
2018-07-17T20:35:09.981Z,1.30
2018-07-17T20:37:38.085Z,1.30
2018-07-17T20:40:06.170Z,1.60
2018-07-17T20:42:34.439Z,1.57
2018-07-17T20:45:02.549Z,1.40
2018-07-17T20:47:30.587Z,1.60
2018-07-17T20:49:58.659Z,1.40
2018-07-17T20:52:26.897Z,1.50
2018-07-17T20:54:55.055Z,1.40
2018-07-17T20:57:23.166Z,1.60
2018-07-17T20:59:51.254Z,1.50
2018-07-17T21:02:19.436Z,1.30
2018-07-17T21:04:47.484Z,1.50
2018-07-17T21:07:15.568Z,1.50
2018-07-17T21:09:43.650Z,1.40
2018-07-17T21:12:12.348Z,1.43
2018-07-17T21:14:40.458Z,1.43
2018-07-17T21:17:08.691Z,1.40
2018-07-17T21:19:36.735Z,1.23
2018-07-17T21:22:04.841Z,1.30
2018-07-17T21:24:33.034Z,1.80
2018-07-17T21:27:01.086Z,1.90
2018-07-17T21:29:29.222Z,1.23
2018-07-17T21:31:57.297Z,1.73
2018-07-17T21:34:25.401Z,1.63
2018-07-17T21:36:53.475Z,1.50
2018-07-17T21:39:21.602Z,1.40
2018-07-17T21:41:49.748Z,1.60
2018-07-17T21:44:17.950Z,1.60
2018-07-17T21:46:46.059Z,1.13
2018-07-17T21:49:14.146Z,1.60
2018-07-17T21:51:42.219Z,1.90
2018-07-17T21:54:10.275Z,1.50
2018-07-17T21:56:38.333Z,1.50
2018-07-17T21:59:06.409Z,1.97
2018-07-17T22:01:34.557Z,1.70
2018-07-17T22:04:02.631Z,1.70
2018-07-17T22:06:30.847Z,1.60
2018-07-17T22:08:59.007Z,1.60
2018-07-17T22:11:27.125Z,1.53
2018-07-17T22:13:55.235Z,1.90
2018-07-17T22:16:23.329Z,1.80
2018-07-17T22:18:51.440Z,1.33
2018-07-17T22:21:19.507Z,1.73
2018-07-17T22:23:47.583Z,1.47
2018-07-17T22:26:15.663Z,1.60
2018-07-17T22:28:43.742Z,1.63
2018-07-17T22:31:11.906Z,1.50
2018-07-17T22:33:39.978Z,2.20
2018-07-17T22:36:08.156Z,2.13
2018-07-17T22:38:36.214Z,2.20
2018-07-17T22:41:04.339Z,2.27
2018-07-17T22:43:32.433Z,1.97
2018-07-17T22:46:00.530Z,1.97
2018-07-17T22:48:28.655Z,2.20
2018-07-17T22:50:56.723Z,1.70
2018-07-17T22:53:24.838Z,2.07
2018-07-17T22:55:52.938Z,2.00
2018-07-17T22:58:21.022Z,1.90
2018-07-17T23:00:49.131Z,1.80
2018-07-17T23:03:17.195Z,1.90
2018-07-17T23:05:45.268Z,2.10
2018-07-17T23:08:13.343Z,2.10
2018-07-17T23:10:41.494Z,2.10
2018-07-17T23:13:09.550Z,2.40
2018-07-17T23:15:37.629Z,2.13
2018-07-17T23:18:05.784Z,1.90
2018-07-17T23:20:34.004Z,2.00
2018-07-17T23:23:02.082Z,2.00
2018-07-17T23:25:31.329Z,1.60
2018-07-17T23:27:59.998Z,1.83
2018-07-17T23:30:28.097Z,1.57
2018-07-17T23:32:56.146Z,1.70
2018-07-17T23:35:24.930Z,1.70
2018-07-17T23:37:53.424Z,1.67
2018-07-17T23:40:22.130Z,1.57
2018-07-17T23:42:50.794Z,1.70
2018-07-17T23:45:19.886Z,1.60
2018-07-17T23:47:48.791Z,1.57
2018-07-17T23:50:16.958Z,1.80
2018-07-17T23:52:45.052Z,1.60
2018-07-17T23:55:13.170Z,1.80
2018-07-17T23:57:41.264Z,1.63
